In Rescue
 
Open Full Screen Window  High Contrast Mode
Wind Gusting 00 knots
09
November 29, 2022 9:41 AM EST
Present Weather: Haze
Weather Information
Wind Direction
  160 °
Wind Speed
  09 kt (10 mph)
Wind Gust
  00 kt (0 mph)
Altimeter
30.03 in
Visibility
4 SM
Temperature
06° C
43° F
Dewpoint
03° C
37° F
Humidity
81%
1hr Rain Fall
00.00 in.
24hr Rain Fall
00.04 in.
Sky Condition
Overcast @ 3,400 ft
MVFR

METAR KONZ 291441Z AUTO 16009KT 4SM HZ OVC034 06/03 A3003 RMK AO2 T00600033

FAA Disclaimer: The data displayed is for advisory purposes only and is not to be used for flight planning or operations.